UKV631 LGSK-EGKK
Flight info
| Callsign | UKV631 |
|---|---|
| Flight time | N/A |
| Altitude | 38000 |
| Route | TSL DCT TALAS DCT MAVAR DCT RINAV DCT RETRA DCT NETKO DCT OKLAX DCT PUL DCT ROTAR DCT SUMIR DCT SAFFA DCT RONAG DCT RLP DCT IRBAL DCT KUNAV |
| Aircraft | A20N/M-SDE3FGHIRWY/S |
Departure
| Time | 2026-04-08 08:28 |
|---|---|
| Airport | Skiathos Island National Airport (LGSK) |
Arrival
| Time | N/A |
|---|---|
| Airport | London Gatwick Airport (EGKK) |
| Time | Latitude | Longitude | Altitude | Speed | Heading |
|---|---|---|---|---|---|
| 2026-04-08 08:01 | 39.17632 | 23.50176 | 34 ft | 0 kts | 287° |
| 2026-04-08 08:20 | 39.17632 | 23.50178 | 34 ft | 1 kts | 287° |
| 2026-04-08 08:21 | 39.17628 | 23.50197 | 35 ft | 3 kts | 265° |
| 2026-04-08 08:21 | 39.17633 | 23.50218 | 33 ft | 3 kts | 212° |
| 2026-04-08 08:21 | 39.17651 | 23.50228 | 34 ft | 3 kts | 195° |
| 2026-04-08 08:21 | 39.17661 | 23.50231 | 35 ft | 1 kts | 199° |
| 2026-04-08 08:24 | 39.17655 | 23.50228 | 36 ft | 3 kts | 199° |
| 2026-04-08 08:25 | 39.17612 | 23.50211 | 35 ft | 9 kts | 192° |
| 2026-04-08 08:25 | 39.17558 | 23.50254 | 35 ft | 10 kts | 141° |
| 2026-04-08 08:25 | 39.17484 | 23.50246 | 33 ft | 14 kts | 194° |
| 2026-04-08 08:25 | 39.17372 | 23.50207 | 29 ft | 20 kts | 199° |
| 2026-04-08 08:26 | 39.17233 | 23.50142 | 23 ft | 19 kts | 199° |
| 2026-04-08 08:26 | 39.17124 | 23.50097 | 20 ft | 13 kts | 200° |
| 2026-04-08 08:26 | 39.17060 | 23.50049 | 17 ft | 8 kts | 232° |
| 2026-04-08 08:26 | 39.17028 | 23.50054 | 17 ft | 4 kts | 86° |
| 2026-04-08 08:27 | 39.17047 | 23.50067 | 17 ft | 3 kts | 1° |
| 2026-04-08 08:27 | 39.17057 | 23.50070 | 17 ft | 0 kts | 14° |
| 2026-04-08 08:27 | 39.17160 | 23.50110 | 21 ft | 53 kts | 19° |
| 2026-04-08 08:27 | 39.17779 | 23.50385 | 40 ft | 130 kts | 19° |
| 2026-04-08 08:28 | 39.18746 | 23.50782 | 564 ft | 149 kts | 11° |
| 2026-04-08 08:28 | 39.19750 | 23.51151 | 1491 ft | 148 kts | 12° |
| 2026-04-08 08:28 | 39.20740 | 23.51594 | 2340 ft | 157 kts | 16° |
| 2026-04-08 08:28 | 39.21826 | 23.52115 | 2956 ft | 176 kts | 17° |
| 2026-04-08 08:29 | 39.23083 | 23.52480 | 3445 ft | 198 kts | 358° |
| 2026-04-08 08:29 | 39.24508 | 23.52128 | 4000 ft | 220 kts | 342° |
| 2026-04-08 08:29 | 39.26042 | 23.51498 | 4615 ft | 243 kts | 341° |
| 2026-04-08 08:29 | 39.27665 | 23.50825 | 5606 ft | 245 kts | 340° |
| 2026-04-08 08:30 | 39.29316 | 23.50131 | 6557 ft | 255 kts | 340° |
| 2026-04-08 08:30 | 39.31034 | 23.49398 | 7452 ft | 261 kts | 339° |
| 2026-04-08 08:30 | 39.32723 | 23.48672 | 8452 ft | 265 kts | 340° |
| 2026-04-08 08:30 | 39.34510 | 23.47903 | 9586 ft | 265 kts | 340° |
| 2026-04-08 08:31 | 39.36137 | 23.47202 | 10490 ft | 269 kts | 339° |
| 2026-04-08 08:31 | 39.37985 | 23.46401 | 10968 ft | 292 kts | 339° |
| 2026-04-08 08:31 | 39.39982 | 23.45535 | 11342 ft | 314 kts | 339° |
| 2026-04-08 08:31 | 39.42094 | 23.44621 | 12059 ft | 322 kts | 339° |
| 2026-04-08 08:32 | 39.44224 | 23.43706 | 13044 ft | 323 kts | 339° |
| 2026-04-08 08:32 | 39.46365 | 23.42778 | 13941 ft | 326 kts | 339° |
| 2026-04-08 08:32 | 39.48528 | 23.41849 | 14764 ft | 329 kts | 339° |
| 2026-04-08 08:32 | 39.50713 | 23.40911 | 15550 ft | 333 kts | 339° |
| 2026-04-08 08:33 | 39.52920 | 23.39959 | 16340 ft | 336 kts | 339° |
| 2026-04-08 08:33 | 39.55142 | 23.38997 | 17127 ft | 339 kts | 338° |
| 2026-04-08 08:33 | 39.57391 | 23.38021 | 17926 ft | 342 kts | 338° |
| 2026-04-08 08:33 | 39.59662 | 23.37034 | 18640 ft | 346 kts | 338° |
| 2026-04-08 08:34 | 39.61958 | 23.36035 | 19296 ft | 349 kts | 338° |
| 2026-04-08 08:34 | 39.64275 | 23.35026 | 19951 ft | 353 kts | 338° |
| 2026-04-08 08:34 | 39.66611 | 23.34006 | 20598 ft | 356 kts | 338° |
| 2026-04-08 08:34 | 39.68972 | 23.32976 | 21237 ft | 360 kts | 338° |
| 2026-04-08 08:35 | 39.71354 | 23.31935 | 21874 ft | 363 kts | 338° |